Pocomoke — WDE5802 — position and weather

sailwx.info

Track history (hours):
 
Tides and Currents Weather Stations Pressure Air Temp Water Temp Dewpoint Dewpoint Depression Visibility Wind Speed Wind Dir Waves Ship Positions

Pocomoke

Owner: Vane Line Bunkering, Inc., Philadelphia, PA. More information available from US FCC via Universal Licensing System and Coast Guard Vessel Documentation Center.

Last reported at 2017-Dec-11 17:00 UTC. Time now 2017-Dec-12 08:32 UTC.
Position N 40°39' W 074°04'.

Length 33 m; draft 3 m.

Type: Tug. MMSI: 367371790.

Date/timePositionNaut miles runAvg speedWind from/ knotsBaromVisibWave heightAir tempDewpointWater temp
2017-Dec-11 17:00N 40°39' W 074°04'2 4.4
2017-Dec-11 16:30N 40°39' W 074°07'0 0.0
2017-Dec-11 16:00N 40°39' W 074°07'0 0.0
2017-Dec-11 15:31N 40°39' W 074°07'0 0.0
2017-Dec-11 15:00N 40°39' W 074°07'0 0.0
2017-Dec-11 14:30N 40°39' W 074°07'0 0.0
2017-Dec-11 14:00N 40°39' W 074°07'0 0.5
2017-Dec-11 13:29N 40°39' W 074°07'0 0.0
2017-Dec-11 13:00N 40°39' W 074°07'0 0.0
2017-Dec-11 12:30N 40°39' W 074°07'0 0.0
2017-Dec-11 12:00N 40°39' W 074°07'0 0.0
2017-Dec-11 11:30N 40°39' W 074°07'1 1.7
2017-Dec-11 11:00N 40°39' W 074°08'4 7.3
2017-Dec-11 10:31N 40°37' W 074°12'0 0.3
2017-Dec-11 10:01N 40°36' W 074°12'1 1.5
2017-Dec-11 09:30N 40°37' W 074°12'0 1.0
2017-Dec-11 09:00N 40°38' W 074°12'0 0.0
2017-Dec-11 08:30N 40°38' W 074°12'0 0.0
2017-Dec-11 08:00N 40°38' W 074°12'1 2.1
2017-Dec-11 07:30N 40°39' W 074°11'4 8.0
2017-Dec-11 07:00N 40°39' W 074°06'0 0.0
2017-Dec-11 06:29N 40°39' W 074°06'2 4.4
2017-Dec-11 06:01N 40°39' W 074°03'1 1.6
2017-Dec-11 05:31N 40°39' W 074°02'0 0.0
2017-Dec-11 05:01N 40°39' W 074°02'0 0.1
2017-Dec-11 04:31N 40°39' W 074°02'0 0.2
2017-Dec-11 04:01N 40°39' W 074°02'0 0.1
2017-Dec-11 03:31N 40°39' W 074°02'0 0.0
2017-Dec-11 03:01N 40°39' W 074°02'0 0.0
2017-Dec-11 02:31N 40°39' W 074°02'0 0.0
2017-Dec-11 02:01N 40°39' W 074°02'0 0.0
2017-Dec-11 01:31N 40°39' W 074°02'0 0.0
2017-Dec-11 01:01N 40°39' W 074°02'0 0.0
2017-Dec-11 00:30N 40°39' W 074°02'0 0.0
2017-Dec-11 00:00N 40°39' W 074°02'0 0.1
2017-Dec-10 23:30N 40°39' W 074°02'0 0.1
2017-Dec-10 23:01N 40°39' W 074°02'0 0.1
2017-Dec-10 22:31N 40°39' W 074°02'0 0.0
2017-Dec-10 22:01N 40°39' W 074°02'0 0.0
2017-Dec-10 21:30N 40°39' W 074°02'0 0.0
2017-Dec-10 21:00N 40°39' W 074°02'0 0.0
2017-Dec-10 20:31N 40°39' W 074°02'0 0.0
2017-Dec-10 20:01N 40°39' W 074°02'0 0.0
2017-Dec-10 19:31N 40°39' W 074°02'0 0.1
2017-Dec-10 19:01N 40°39' W 074°02'0 0.0
2017-Dec-10 18:30N 40°39' W 074°02'0 0.0
2017-Dec-10 18:01N 40°39' W 074°02'0 0.0
2017-Dec-10 17:31N 40°39' W 074°02'0 0.0
2017-Dec-10 17:01N 40°39' W 074°02'0 0.1
2017-Dec-10 16:31N 40°39' W 074°02'0 0.0
2017-Dec-10 16:01N 40°39' W 074°02'0 0.0
2017-Dec-10 15:31N 40°39' W 074°02'0 0.1
2017-Dec-10 15:01N 40°39' W 074°02'0 0.0
2017-Dec-10 14:31N 40°39' W 074°02'0 0.0
2017-Dec-10 14:00N 40°39' W 074°02'0 0.0
2017-Dec-10 13:30N 40°39' W 074°02'0 0.1
2017-Dec-10 13:01N 40°39' W 074°02'0 0.1
2017-Dec-10 12:31N 40°39' W 074°02'0 0.1
2017-Dec-10 12:00N 40°39' W 074°02'0 0.0
2017-Dec-10 11:31N 40°39' W 074°02'0 0.0
2017-Dec-10 11:01N 40°39' W 074°02'0 0.0
2017-Dec-10 10:30N 40°39' W 074°02'0 0.1
2017-Dec-10 10:00N 40°39' W 074°02'0 0.0
2017-Dec-10 09:31N 40°39' W 074°02'0 0.0
2017-Dec-10 09:01N 40°39' W 074°02'0 0.0
2017-Dec-10 08:30N 40°39' W 074°02'0 0.0
2017-Dec-10 08:01N 40°39' W 074°02'0 0.0
2017-Dec-10 07:31N 40°39' W 074°02'0 0.0
2017-Dec-10 07:01N 40°39' W 074°02'0 0.0
2017-Dec-10 06:31N 40°39' W 074°02'0 0.0
2017-Dec-10 06:01N 40°39' W 074°02'0 0.1
2017-Dec-10 05:30N 40°39' W 074°02'0 0.1
2017-Dec-10 05:01N 40°39' W 074°02'0 0.0
2017-Dec-10 04:30N 40°39' W 074°02'0 0.1
2017-Dec-10 04:01N 40°39' W 074°02'0 0.0
2017-Dec-10 03:30N 40°39' W 074°02'0 0.0
2017-Dec-10 03:00N 40°39' W 074°02'0 0.1
2017-Dec-10 02:31N 40°39' W 074°02'1 1.4
2017-Dec-10 02:00N 40°39' W 074°03'4 7.9
2017-Dec-10 01:30N 40°39' W 074°08'2 4.3
2017-Dec-10 01:00N 40°41' W 074°09'0 0.2
2017-Dec-10 00:29N 40°41' W 074°09'0 0.8
2017-Dec-10 00:01N 40°40' W 074°08'2 4.9
2017-Dec-09 23:30N 40°39' W 074°06'4 8.1
2017-Dec-09 23:00N 40°40' W 074°00'0 0.0
2017-Dec-09 22:30N 40°40' W 074°00'0 0.0
2017-Dec-09 22:01N 40°40' W 074°00'1 1.1
2017-Dec-09 21:31N 40°40' W 074°01'2 3.3
2017-Dec-09 21:01N 40°41' W 074°00'0 0.1
2017-Dec-09 20:31N 40°41' W 074°00'2 3.0
2017-Dec-09 20:01N 40°41' W 074°02'3 5.6
2017-Dec-09 19:31N 40°39' W 074°05'1 1.9
2017-Dec-09 19:00N 40°39' W 074°04'4 7.5
2017-Dec-09 18:31N 40°41' W 074°00'0 0.0
2017-Dec-09 18:01N 40°41' W 074°00'0 0.0
2017-Dec-09 17:30N 40°41' W 074°00'1 2.9
2017-Dec-09 17:01N 40°40' W 074°00'0 0.0
2017-Dec-09 16:31N 40°40' W 074°00'0 0.0
2017-Dec-09 16:00N 40°40' W 074°00'0 0.0
2017-Dec-09 15:30N 40°40' W 074°00'0 0.0
2017-Dec-09 15:01N 40°40' W 074°00'0 0.0
2017-Dec-09 14:30N 40°40' W 074°00'0 0.0
2017-Dec-09 14:00N 40°40' W 074°00'0 0.0
2017-Dec-09 13:30N 40°40' W 074°00'0 0.6
2017-Dec-09 13:01N 40°40' W 074°00'0 0.0
2017-Dec-09 12:31N 40°40' W 074°00'0 0.0
2017-Dec-09 12:01N 40°40' W 074°00'0 0.0
2017-Dec-09 11:31N 40°40' W 074°00'0 0.0
2017-Dec-09 11:00N 40°40' W 074°00'0 0.0
2017-Dec-09 10:31N 40°40' W 074°00'0 0.0
2017-Dec-09 10:01N 40°40' W 074°00'0 0.0
2017-Dec-09 09:30N 40°40' W 074°00'1 1.5
2017-Dec-09 09:01N 40°40' W 074°01'2 3.6
2017-Dec-09 08:30N 40°41' W 074°00'510.9
2017-Dec-09 08:01N 40°46' W 073°57'5 9.3
2017-Dec-09 07:30N 40°48' W 073°51'4 8.3
2017-Dec-09 07:00N 40°50' W 073°46'1 0.0
2017-Dec-08 02:06N 40°50' W 073°47'0 4.0
2017-Dec-08 02:00N 40°49' W 073°47'0 0.3
2017-Dec-08 01:30N 40°49' W 073°46'0 0.0
2017-Dec-08 01:00N 40°49' W 073°46'0 0.1
2017-Dec-08 00:27N 40°49' W 073°46'0 0.0
2017-Dec-07 23:58N 40°49' W 073°46'0 0.0
2017-Dec-07 23:30N 40°49' W 073°46'0 0.0
2017-Dec-07 22:57N 40°49' W 073°46'0 0.0
2017-Dec-07 22:26N 40°49' W 073°46'0 0.1
2017-Dec-07 22:01N 40°49' W 073°46'0 0.0
2017-Dec-07 21:29N 40°49' W 073°46'0 0.0
2017-Dec-07 18:44N 40°49' W 073°46'0 0.0
2017-Dec-07 16:11N 40°49' W 073°46'0 0.0
2017-Dec-07 15:47N 40°49' W 073°46'0 0.1
2017-Dec-07 15:30N 40°49' W 073°46'0 0.1
2017-Dec-07 14:59N 40°49' W 073°46'0 0.0
2017-Dec-07 14:29N 40°49' W 073°46'0 0.0
2017-Dec-07 14:00N 40°49' W 073°46'0 0.0
2017-Dec-07 13:29N 40°49' W 073°46'0 0.0
2017-Dec-07 13:00N 40°49' W 073°46'0 0.1
2017-Dec-07 12:29N 40°49' W 073°46'0 0.1
2017-Dec-07 11:58N 40°49' W 073°46'0 0.0
2017-Dec-07 11:26N 40°49' W 073°46'0 0.0
2017-Dec-07 11:00N 40°49' W 073°46'0 0.0
2017-Dec-07 10:30N 40°49' W 073°46'0 0.0
2017-Dec-07 10:00N 40°49' W 073°46'0 0.0
2017-Dec-07 09:30N 40°49' W 073°46'0 0.0
2017-Dec-07 09:00N 40°49' W 073°46'0 0.0
2017-Dec-07 08:25N 40°49' W 073°46'0 0.0
2017-Dec-07 06:36N 40°49' W 073°46'0 0.1
2017-Dec-07 06:29N 40°49' W 073°46'0 0.1
2017-Dec-07 05:55N 40°49' W 073°46'0 0.0
2017-Dec-07 05:29N 40°49' W 073°46'0 0.0
2017-Dec-07 04:59N 40°49' W 073°46'0 0.0
2017-Dec-07 04:30N 40°49' W 073°46'0 0.0
2017-Dec-07 04:00N 40°49' W 073°46'0 0.1
2017-Dec-07 03:30N 40°49' W 073°46'0 0.1
2017-Dec-07 03:00N 40°49' W 073°46'0 0.1
2017-Dec-07 02:29N 40°49' W 073°46'0 0.0
2017-Dec-07 02:00N 40°49' W 073°46'0 0.0
2017-Dec-07 01:29N 40°49' W 073°47'0 0.0
2017-Dec-07 01:00N 40°49' W 073°46'0 0.0
2017-Dec-07 00:26N 40°49' W 073°46'0 0.1
2017-Dec-06 23:59N 40°49' W 073°46'0 0.1
2017-Dec-06 23:30N 40°49' W 073°46'0 0.0
2017-Dec-06 23:00N 40°49' W 073°46'0 0.0
2017-Dec-06 22:30N 40°49' W 073°46'0 0.4
2017-Dec-06 21:59N 40°49' W 073°47'5 6.6
2017-Dec-06 21:15N 40°53' W 073°43'  
2017-Dec-04 10:30N 40°40' W 074°05'0 0.0
2017-Dec-04 10:01N 40°40' W 074°05'0 0.0
2017-Dec-04 09:31N 40°40' W 074°05'0 0.0
2017-Dec-04 09:00N 40°40' W 074°05'0 0.0
2017-Dec-04 08:31N 40°40' W 074°05'1 1.6
2017-Dec-04 08:00N 40°40' W 074°04'1 1.0
2017-Dec-04 07:31N 40°39' W 074°04'1 2.2
2017-Dec-04 07:00N 40°39' W 074°05'1 2.1
2017-Dec-04 06:30N 40°39' W 074°04'1 2.9
2017-Dec-04 06:00N 40°39' W 074°06'2 3.8
2017-Dec-04 05:30N 40°39' W 074°04'3 7.0
2017-Dec-04 05:01N 40°41' W 074°00'0 0.1
2017-Dec-04 04:31N 40°41' W 074°00'0 0.0
2017-Dec-04 04:00N 40°41' W 074°00'0 0.0
2017-Dec-04 03:30N 40°41' W 074°00'0 0.0
2017-Dec-04 03:00N 40°41' W 074°00'1 2.1
2017-Dec-04 02:30N 40°41' W 074°01'1 1.9
2017-Dec-04 02:01N 40°40' W 074°01'3 5.5
2017-Dec-04 01:31N 40°39' W 074°04'2 3.6
2017-Dec-04 01:00N 40°39' W 074°06'2 4.7
2017-Dec-04 00:30N 40°40' W 074°03'1 1.7
2017-Dec-04 00:00N 40°40' W 074°03'4 8.1
2017-Dec-03 23:30N 40°39' W 074°08'1 3.0
2017-Dec-03 23:00N 40°40' W 074°09'0 0.0
2017-Dec-03 22:30N 40°40' W 074°09'0 0.0
2017-Dec-03 22:01N 40°40' W 074°09'0 0.0
2017-Dec-03 21:30N 40°40' W 074°09'0 0.0
2017-Dec-03 21:00N 40°40' W 074°09'0 0.0
2017-Dec-03 20:30N 40°40' W 074°09'0 0.0
2017-Dec-03 20:00N 40°40' W 074°09'0 0.0
2017-Dec-03 19:30N 40°40' W 074°09'0 0.0
2017-Dec-03 19:00N 40°40' W 074°09'0 0.0
2017-Dec-03 18:31N 40°40' W 074°09'0 0.0
2017-Dec-03 18:01N 40°40' W 074°09'0 0.0
2017-Dec-03 17:30N 40°40' W 074°09'1 1.4
2017-Dec-03 17:01N 40°39' W 074°09'2 3.7
2017-Dec-03 16:30N 40°39' W 074°06'0 0.2
2017-Dec-03 16:00N 40°39' W 074°06'2 3.4
2017-Dec-03 15:30N 40°39' W 074°04'3 6.6
2017-Dec-03 15:00N 40°40' W 074°00'0 0.0
2017-Dec-03 14:30N 40°40' W 074°00'0 0.0
2017-Dec-03 14:01N 40°40' W 074°00'0 0.0
2017-Dec-03 13:30N 40°40' W 074°00'0 0.0
2017-Dec-03 13:01N 40°40' W 074°00'0 0.0
2017-Dec-03 12:30N 40°40' W 074°00'0 0.0
2017-Dec-03 12:00N 40°40' W 074°00'0 0.0
2017-Dec-03 11:30N 40°40' W 074°00'0 0.0
2017-Dec-03 11:01N 40°40' W 074°00'0 0.0
2017-Dec-03 10:31N 40°40' W 074°00'4 7.3
2017-Dec-03 10:01N 40°39' W 074°05'4 8.4
2017-Dec-03 09:29N 40°39' W 074°10'4 8.0
2017-Dec-03 09:00N 40°35' W 074°12'3 7.0
2017-Dec-03 08:31N 40°32' W 074°15'0 0.1
2017-Dec-03 08:00N 40°32' W 074°15'0 0.1
2017-Dec-03 06:38N 40°32' W 074°15'1 4.7
2017-Dec-03 06:25N 40°33' W 074°14'3 7.7
2017-Dec-03 06:00N 40°36' W 074°12'3 7.1
2017-Dec-03 05:30N 40°39' W 074°09'4 7.1
2017-Dec-03 05:00N 40°39' W 074°04'3 5.1
2017-Dec-03 04:30N 40°40' W 074°01'0 0.0
2017-Dec-03 04:00N 40°40' W 074°01'0 0.0
2017-Dec-03 03:30N 40°40' W 074°01'0 0.0
2017-Dec-03 03:00N 40°40' W 074°01'0 0.7
2017-Dec-03 02:30N 40°40' W 074°01'3 5.8
2017-Dec-03 02:01N 40°42' W 073°59'5 9.3
2017-Dec-03 01:29N 40°47' W 073°56'3 5.4
2017-Dec-03 01:01N 40°48' W 073°53'4 7.8
2017-Dec-03 00:29N 40°48' W 073°47'4 7.7
2017-Dec-03 00:00N 40°52' W 073°45'0 0.0
2017-Dec-02 08:22N 40°52' W 073°45'3 8.8
2017-Dec-02 08:00N 40°49' W 073°47'3 6.7
2017-Dec-02 07:30N 40°48' W 073°51'3 6.2
2017-Dec-02 06:59N 40°47' W 073°55'3 6.4
2017-Dec-02 06:31N 40°45' W 073°58'3 5.5
2017-Dec-02 06:00N 40°42' W 073°59'3 6.4
2017-Dec-02 05:30N 40°40' W 074°02'3 6.2
2017-Dec-02 05:00N 40°39' W 074°06'0 0.7
2017-Dec-02 04:30N 40°39' W 074°07'0 0.0
2017-Dec-02 04:00N 40°39' W 074°07'0 0.0
2017-Dec-02 03:30N 40°39' W 074°07'0 0.0
2017-Dec-02 03:00N 40°39' W 074°07'0 0.0
2017-Dec-02 02:30N 40°39' W 074°07'1 1.7
2017-Dec-02 02:00N 40°39' W 074°05'0 0.1
2017-Dec-02 01:30N 40°39' W 074°05'0 0.0
2017-Dec-02 01:00N 40°39' W 074°05'0 0.0
2017-Dec-02 00:30N 40°39' W 074°05'0 0.0
2017-Dec-02 00:00N 40°39' W 074°05'0 0.0
2017-Dec-01 23:30N 40°39' W 074°05'0 0.0
2017-Dec-01 23:00N 40°39' W 074°05'0 0.0
2017-Dec-01 22:30N 40°39' W 074°05'0 0.1
2017-Dec-01 22:00N 40°39' W 074°06'1 3.0
2017-Dec-01 21:30N 40°39' W 074°04'3 5.2
2017-Dec-01 21:00N 40°40' W 074°00'0 0.0
2017-Dec-01 20:30N 40°40' W 074°00'0 0.0
2017-Dec-01 20:00N 40°40' W 074°00'0 0.0
2017-Dec-01 19:30N 40°40' W 074°00'0 0.0
2017-Dec-01 19:00N 40°40' W 074°00'0 0.0
2017-Dec-01 18:30N 40°40' W 074°00'0 0.0
2017-Dec-01 18:00N 40°40' W 074°00'0 0.0
2017-Dec-01 17:30N 40°40' W 074°00'0 0.6
2017-Dec-01 17:00N 40°40' W 074°00'  
Track history (hours):
 
Tides and Currents Weather Stations Pressure Air Temp Water Temp Dewpoint Dewpoint Depression Visibility Wind Speed Wind Dir Waves Ship Positions

Pocomoke

Owner: Vane Line Bunkering, Inc., Philadelphia, PA. More information available from US FCC via Universal Licensing System and Coast Guard Vessel Documentation Center.

Last reported at 2017-Dec-11 17:00 UTC. Time now 2017-Dec-12 08:32 UTC.
Position N 40°39' W 074°04'.

Length 33 m; draft 3 m.

Type: Tug. MMSI: 367371790.

Date/timePositionNaut miles runAvg speedWind from/ knotsBaromVisibWave heightAir tempDewpointWater temp
2017-Dec-11 17:00N 40°39' W 074°04'2 4.4
2017-Dec-11 16:30N 40°39' W 074°07'0 0.0
2017-Dec-11 16:00N 40°39' W 074°07'0 0.0
2017-Dec-11 15:31N 40°39' W 074°07'0 0.0
2017-Dec-11 15:00N 40°39' W 074°07'0 0.0
2017-Dec-11 14:30N 40°39' W 074°07'0 0.0
2017-Dec-11 14:00N 40°39' W 074°07'0 0.5
2017-Dec-11 13:29N 40°39' W 074°07'0 0.0
2017-Dec-11 13:00N 40°39' W 074°07'0 0.0
2017-Dec-11 12:30N 40°39' W 074°07'0 0.0
2017-Dec-11 12:00N 40°39' W 074°07'0 0.0
2017-Dec-11 11:30N 40°39' W 074°07'1 1.7
2017-Dec-11 11:00N 40°39' W 074°08'4 7.3
2017-Dec-11 10:31N 40°37' W 074°12'0 0.3
2017-Dec-11 10:01N 40°36' W 074°12'1 1.5
2017-Dec-11 09:30N 40°37' W 074°12'0 1.0
2017-Dec-11 09:00N 40°38' W 074°12'0 0.0
2017-Dec-11 08:30N 40°38' W 074°12'0 0.0
2017-Dec-11 08:00N 40°38' W 074°12'1 2.1
2017-Dec-11 07:30N 40°39' W 074°11'4 8.0
2017-Dec-11 07:00N 40°39' W 074°06'0 0.0
2017-Dec-11 06:29N 40°39' W 074°06'2 4.4
2017-Dec-11 06:01N 40°39' W 074°03'1 1.6
2017-Dec-11 05:31N 40°39' W 074°02'0 0.0
2017-Dec-11 05:01N 40°39' W 074°02'0 0.1
2017-Dec-11 04:31N 40°39' W 074°02'0 0.2
2017-Dec-11 04:01N 40°39' W 074°02'0 0.1
2017-Dec-11 03:31N 40°39' W 074°02'0 0.0
2017-Dec-11 03:01N 40°39' W 074°02'0 0.0
2017-Dec-11 02:31N 40°39' W 074°02'0 0.0
2017-Dec-11 02:01N 40°39' W 074°02'0 0.0
2017-Dec-11 01:31N 40°39' W 074°02'0 0.0
2017-Dec-11 01:01N 40°39' W 074°02'0 0.0
2017-Dec-11 00:30N 40°39' W 074°02'0 0.0
2017-Dec-11 00:00N 40°39' W 074°02'0 0.1
2017-Dec-10 23:30N 40°39' W 074°02'0 0.1
2017-Dec-10 23:01N 40°39' W 074°02'0 0.1
2017-Dec-10 22:31N 40°39' W 074°02'0 0.0
2017-Dec-10 22:01N 40°39' W 074°02'0 0.0
2017-Dec-10 21:30N 40°39' W 074°02'0 0.0
2017-Dec-10 21:00N 40°39' W 074°02'0 0.0
2017-Dec-10 20:31N 40°39' W 074°02'0 0.0
2017-Dec-10 20:01N 40°39' W 074°02'0 0.0
2017-Dec-10 19:31N 40°39' W 074°02'0 0.1
2017-Dec-10 19:01N 40°39' W 074°02'0 0.0
2017-Dec-10 18:30N 40°39' W 074°02'0 0.0
2017-Dec-10 18:01N 40°39' W 074°02'0 0.0
2017-Dec-10 17:31N 40°39' W 074°02'0 0.0
2017-Dec-10 17:01N 40°39' W 074°02'0 0.1
2017-Dec-10 16:31N 40°39' W 074°02'0 0.0
2017-Dec-10 16:01N 40°39' W 074°02'0 0.0
2017-Dec-10 15:31N 40°39' W 074°02'0 0.1
2017-Dec-10 15:01N 40°39' W 074°02'0 0.0
2017-Dec-10 14:31N 40°39' W 074°02'0 0.0
2017-Dec-10 14:00N 40°39' W 074°02'0 0.0
2017-Dec-10 13:30N 40°39' W 074°02'0 0.1
2017-Dec-10 13:01N 40°39' W 074°02'0 0.1
2017-Dec-10 12:31N 40°39' W 074°02'0 0.1
2017-Dec-10 12:00N 40°39' W 074°02'0 0.0
2017-Dec-10 11:31N 40°39' W 074°02'0 0.0
2017-Dec-10 11:01N 40°39' W 074°02'0 0.0
2017-Dec-10 10:30N 40°39' W 074°02'0 0.1
2017-Dec-10 10:00N 40°39' W 074°02'0 0.0
2017-Dec-10 09:31N 40°39' W 074°02'0 0.0
2017-Dec-10 09:01N 40°39' W 074°02'0 0.0
2017-Dec-10 08:30N 40°39' W 074°02'0 0.0
2017-Dec-10 08:01N 40°39' W 074°02'0 0.0
2017-Dec-10 07:31N 40°39' W 074°02'0 0.0
2017-Dec-10 07:01N 40°39' W 074°02'0 0.0
2017-Dec-10 06:31N 40°39' W 074°02'0 0.0
2017-Dec-10 06:01N 40°39' W 074°02'0 0.1
2017-Dec-10 05:30N 40°39' W 074°02'0 0.1
2017-Dec-10 05:01N 40°39' W 074°02'0 0.0
2017-Dec-10 04:30N 40°39' W 074°02'0 0.1
2017-Dec-10 04:01N 40°39' W 074°02'0 0.0
2017-Dec-10 03:30N 40°39' W 074°02'0 0.0
2017-Dec-10 03:00N 40°39' W 074°02'0 0.1
2017-Dec-10 02:31N 40°39' W 074°02'1 1.4
2017-Dec-10 02:00N 40°39' W 074°03'4 7.9
2017-Dec-10 01:30N 40°39' W 074°08'2 4.3
2017-Dec-10 01:00N 40°41' W 074°09'0 0.2
2017-Dec-10 00:29N 40°41' W 074°09'0 0.8
2017-Dec-10 00:01N 40°40' W 074°08'2 4.9
2017-Dec-09 23:30N 40°39' W 074°06'4 8.1
2017-Dec-09 23:00N 40°40' W 074°00'0 0.0
2017-Dec-09 22:30N 40°40' W 074°00'0 0.0
2017-Dec-09 22:01N 40°40' W 074°00'1 1.1
2017-Dec-09 21:31N 40°40' W 074°01'2 3.3
2017-Dec-09 21:01N 40°41' W 074°00'0 0.1
2017-Dec-09 20:31N 40°41' W 074°00'2 3.0
2017-Dec-09 20:01N 40°41' W 074°02'3 5.6
2017-Dec-09 19:31N 40°39' W 074°05'1 1.9
2017-Dec-09 19:00N 40°39' W 074°04'4 7.5
2017-Dec-09 18:31N 40°41' W 074°00'0 0.0
2017-Dec-09 18:01N 40°41' W 074°00'0 0.0
2017-Dec-09 17:30N 40°41' W 074°00'1 2.9
2017-Dec-09 17:01N 40°40' W 074°00'0 0.0
2017-Dec-09 16:31N 40°40' W 074°00'0 0.0
2017-Dec-09 16:00N 40°40' W 074°00'0 0.0
2017-Dec-09 15:30N 40°40' W 074°00'0 0.0
2017-Dec-09 15:01N 40°40' W 074°00'0 0.0
2017-Dec-09 14:30N 40°40' W 074°00'0 0.0
2017-Dec-09 14:00N 40°40' W 074°00'0 0.0
2017-Dec-09 13:30N 40°40' W 074°00'0 0.6
2017-Dec-09 13:01N 40°40' W 074°00'0 0.0
2017-Dec-09 12:31N 40°40' W 074°00'0 0.0
2017-Dec-09 12:01N 40°40' W 074°00'0 0.0
2017-Dec-09 11:31N 40°40' W 074°00'0 0.0
2017-Dec-09 11:00N 40°40' W 074°00'0 0.0
2017-Dec-09 10:31N 40°40' W 074°00'0 0.0
2017-Dec-09 10:01N 40°40' W 074°00'0 0.0
2017-Dec-09 09:30N 40°40' W 074°00'1 1.5
2017-Dec-09 09:01N 40°40' W 074°01'2 3.6
2017-Dec-09 08:30N 40°41' W 074°00'510.9
2017-Dec-09 08:01N 40°46' W 073°57'5 9.3
2017-Dec-09 07:30N 40°48' W 073°51'4 8.3
2017-Dec-09 07:00N 40°50' W 073°46'1 0.0
2017-Dec-08 02:06N 40°50' W 073°47'0 4.0
2017-Dec-08 02:00N 40°49' W 073°47'0 0.3
2017-Dec-08 01:30N 40°49' W 073°46'0 0.0
2017-Dec-08 01:00N 40°49' W 073°46'0 0.1
2017-Dec-08 00:27N 40°49' W 073°46'0 0.0
2017-Dec-07 23:58N 40°49' W 073°46'0 0.0
2017-Dec-07 23:30N 40°49' W 073°46'0 0.0
2017-Dec-07 22:57N 40°49' W 073°46'0 0.0
2017-Dec-07 22:26N 40°49' W 073°46'0 0.1
2017-Dec-07 22:01N 40°49' W 073°46'0 0.0
2017-Dec-07 21:29N 40°49' W 073°46'0 0.0
2017-Dec-07 18:44N 40°49' W 073°46'0 0.0
2017-Dec-07 16:11N 40°49' W 073°46'0 0.0
2017-Dec-07 15:47N 40°49' W 073°46'0 0.1
2017-Dec-07 15:30N 40°49' W 073°46'0 0.1
2017-Dec-07 14:59N 40°49' W 073°46'0 0.0
2017-Dec-07 14:29N 40°49' W 073°46'0 0.0
2017-Dec-07 14:00N 40°49' W 073°46'0 0.0
2017-Dec-07 13:29N 40°49' W 073°46'0 0.0
2017-Dec-07 13:00N 40°49' W 073°46'0 0.1
2017-Dec-07 12:29N 40°49' W 073°46'0 0.1
2017-Dec-07 11:58N 40°49' W 073°46'0 0.0
2017-Dec-07 11:26N 40°49' W 073°46'0 0.0
2017-Dec-07 11:00N 40°49' W 073°46'0 0.0
2017-Dec-07 10:30N 40°49' W 073°46'0 0.0
2017-Dec-07 10:00N 40°49' W 073°46'0 0.0
2017-Dec-07 09:30N 40°49' W 073°46'0 0.0
2017-Dec-07 09:00N 40°49' W 073°46'0 0.0
2017-Dec-07 08:25N 40°49' W 073°46'0 0.0
2017-Dec-07 06:36N 40°49' W 073°46'0 0.1
2017-Dec-07 06:29N 40°49' W 073°46'0 0.1
2017-Dec-07 05:55N 40°49' W 073°46'0 0.0
2017-Dec-07 05:29N 40°49' W 073°46'0 0.0
2017-Dec-07 04:59N 40°49' W 073°46'0 0.0
2017-Dec-07 04:30N 40°49' W 073°46'0 0.0
2017-Dec-07 04:00N 40°49' W 073°46'0 0.1
2017-Dec-07 03:30N 40°49' W 073°46'0 0.1
2017-Dec-07 03:00N 40°49' W 073°46'0 0.1
2017-Dec-07 02:29N 40°49' W 073°46'0 0.0
2017-Dec-07 02:00N 40°49' W 073°46'0 0.0
2017-Dec-07 01:29N 40°49' W 073°47'0 0.0
2017-Dec-07 01:00N 40°49' W 073°46'0 0.0
2017-Dec-07 00:26N 40°49' W 073°46'0 0.1
2017-Dec-06 23:59N 40°49' W 073°46'0 0.1
2017-Dec-06 23:30N 40°49' W 073°46'0 0.0
2017-Dec-06 23:00N 40°49' W 073°46'0 0.0
2017-Dec-06 22:30N 40°49' W 073°46'0 0.4
2017-Dec-06 21:59N 40°49' W 073°47'5 6.6
2017-Dec-06 21:15N 40°53' W 073°43'  
2017-Dec-04 10:30N 40°40' W 074°05'0 0.0
2017-Dec-04 10:01N 40°40' W 074°05'0 0.0
2017-Dec-04 09:31N 40°40' W 074°05'0 0.0
2017-Dec-04 09:00N 40°40' W 074°05'0 0.0
2017-Dec-04 08:31N 40°40' W 074°05'1 1.6
2017-Dec-04 08:00N 40°40' W 074°04'1 1.0
2017-Dec-04 07:31N 40°39' W 074°04'1 2.2
2017-Dec-04 07:00N 40°39' W 074°05'1 2.1
2017-Dec-04 06:30N 40°39' W 074°04'1 2.9
2017-Dec-04 06:00N 40°39' W 074°06'2 3.8
2017-Dec-04 05:30N 40°39' W 074°04'3 7.0
2017-Dec-04 05:01N 40°41' W 074°00'0 0.1
2017-Dec-04 04:31N 40°41' W 074°00'0 0.0
2017-Dec-04 04:00N 40°41' W 074°00'0 0.0
2017-Dec-04 03:30N 40°41' W 074°00'0 0.0
2017-Dec-04 03:00N 40°41' W 074°00'1 2.1
2017-Dec-04 02:30N 40°41' W 074°01'1 1.9
2017-Dec-04 02:01N 40°40' W 074°01'3 5.5
2017-Dec-04 01:31N 40°39' W 074°04'2 3.6
2017-Dec-04 01:00N 40°39' W 074°06'2 4.7
2017-Dec-04 00:30N 40°40' W 074°03'1 1.7
2017-Dec-04 00:00N 40°40' W 074°03'4 8.1
2017-Dec-03 23:30N 40°39' W 074°08'1 3.0
2017-Dec-03 23:00N 40°40' W 074°09'0 0.0
2017-Dec-03 22:30N 40°40' W 074°09'0 0.0
2017-Dec-03 22:01N 40°40' W 074°09'0 0.0
2017-Dec-03 21:30N 40°40' W 074°09'0 0.0
2017-Dec-03 21:00N 40°40' W 074°09'0 0.0
2017-Dec-03 20:30N 40°40' W 074°09'0 0.0
2017-Dec-03 20:00N 40°40' W 074°09'0 0.0
2017-Dec-03 19:30N 40°40' W 074°09'0 0.0
2017-Dec-03 19:00N 40°40' W 074°09'0 0.0
2017-Dec-03 18:31N 40°40' W 074°09'0 0.0
2017-Dec-03 18:01N 40°40' W 074°09'0 0.0
2017-Dec-03 17:30N 40°40' W 074°09'1 1.4
2017-Dec-03 17:01N 40°39' W 074°09'2 3.7
2017-Dec-03 16:30N 40°39' W 074°06'0 0.2
2017-Dec-03 16:00N 40°39' W 074°06'2 3.4
2017-Dec-03 15:30N 40°39' W 074°04'3 6.6
2017-Dec-03 15:00N 40°40' W 074°00'0 0.0
2017-Dec-03 14:30N 40°40' W 074°00'0 0.0
2017-Dec-03 14:01N 40°40' W 074°00'0 0.0
2017-Dec-03 13:30N 40°40' W 074°00'0 0.0
2017-Dec-03 13:01N 40°40' W 074°00'0 0.0
2017-Dec-03 12:30N 40°40' W 074°00'0 0.0
2017-Dec-03 12:00N 40°40' W 074°00'0 0.0
2017-Dec-03 11:30N 40°40' W 074°00'0 0.0
2017-Dec-03 11:01N 40°40' W 074°00'0 0.0
2017-Dec-03 10:31N 40°40' W 074°00'4 7.3
2017-Dec-03 10:01N 40°39' W 074°05'4 8.4
2017-Dec-03 09:29N 40°39' W 074°10'4 8.0
2017-Dec-03 09:00N 40°35' W 074°12'3 7.0
2017-Dec-03 08:31N 40°32' W 074°15'0 0.1
2017-Dec-03 08:00N 40°32' W 074°15'0 0.1
2017-Dec-03 06:38N 40°32' W 074°15'1 4.7
2017-Dec-03 06:25N 40°33' W 074°14'3 7.7
2017-Dec-03 06:00N 40°36' W 074°12'3 7.1
2017-Dec-03 05:30N 40°39' W 074°09'4 7.1
2017-Dec-03 05:00N 40°39' W 074°04'3 5.1
2017-Dec-03 04:30N 40°40' W 074°01'0 0.0
2017-Dec-03 04:00N 40°40' W 074°01'0 0.0
2017-Dec-03 03:30N 40°40' W 074°01'0 0.0
2017-Dec-03 03:00N 40°40' W 074°01'0 0.7
2017-Dec-03 02:30N 40°40' W 074°01'3 5.8
2017-Dec-03 02:01N 40°42' W 073°59'5 9.3
2017-Dec-03 01:29N 40°47' W 073°56'3 5.4
2017-Dec-03 01:01N 40°48' W 073°53'4 7.8
2017-Dec-03 00:29N 40°48' W 073°47'4 7.7
2017-Dec-03 00:00N 40°52' W 073°45'0 0.0
2017-Dec-02 08:22N 40°52' W 073°45'3 8.8
2017-Dec-02 08:00N 40°49' W 073°47'3 6.7
2017-Dec-02 07:30N 40°48' W 073°51'3 6.2
2017-Dec-02 06:59N 40°47' W 073°55'3 6.4
2017-Dec-02 06:31N 40°45' W 073°58'3 5.5
2017-Dec-02 06:00N 40°42' W 073°59'3 6.4
2017-Dec-02 05:30N 40°40' W 074°02'3 6.2
2017-Dec-02 05:00N 40°39' W 074°06'0 0.7
2017-Dec-02 04:30N 40°39' W 074°07'0 0.0
2017-Dec-02 04:00N 40°39' W 074°07'0 0.0
2017-Dec-02 03:30N 40°39' W 074°07'0 0.0
2017-Dec-02 03:00N 40°39' W 074°07'0 0.0
2017-Dec-02 02:30N 40°39' W 074°07'1 1.7
2017-Dec-02 02:00N 40°39' W 074°05'0 0.1
2017-Dec-02 01:30N 40°39' W 074°05'0 0.0
2017-Dec-02 01:00N 40°39' W 074°05'0 0.0
2017-Dec-02 00:30N 40°39' W 074°05'0 0.0
2017-Dec-02 00:00N 40°39' W 074°05'0 0.0
2017-Dec-01 23:30N 40°39' W 074°05'0 0.0
2017-Dec-01 23:00N 40°39' W 074°05'0 0.0
2017-Dec-01 22:30N 40°39' W 074°05'0 0.1
2017-Dec-01 22:00N 40°39' W 074°06'1 3.0
2017-Dec-01 21:30N 40°39' W 074°04'3 5.2
2017-Dec-01 21:00N 40°40' W 074°00'0 0.0
2017-Dec-01 20:30N 40°40' W 074°00'0 0.0
2017-Dec-01 20:00N 40°40' W 074°00'0 0.0
2017-Dec-01 19:30N 40°40' W 074°00'0 0.0
2017-Dec-01 19:00N 40°40' W 074°00'0 0.0
2017-Dec-01 18:30N 40°40' W 074°00'0 0.0
2017-Dec-01 18:00N 40°40' W 074°00'0 0.0
2017-Dec-01 17:30N 40°40' W 074°00'0 0.6
2017-Dec-01 17:00N 40°40' W 074°00'  

Dump ship's entire track history